Погода Илья-Солтейрана 2 недели

Сан-Паулу, Бразилия

18 - 30 июля
  • 18июля
    Сегодня
    +17°
    +31°
    Ясно и безоблачно
    ВремяПогодаТемператураВлажностьДавлениеВетер, м/сВероятность осадков
    00:00Ясно и безоблачно+20°C76 %738 мм2.5 м/с5 %
    03:00Ясно и безоблачно+18°C78 %737 мм2.5 м/с5 %
    06:00Ясно и безоблачно+17°C79 %737 мм2.4 м/с5 %
    09:00Ясно и безоблачно+19°C61 %739 мм2.5 м/с5 %
    12:00Ясно и безоблачно+27°C41 %739 мм2.8 м/с5 %
    15:00Ясно и безоблачно+30°C32 %737 мм2.2 м/с5 %
    18:00Ясно и безоблачно+29°C35 %737 мм0.3 м/с5 %
    21:00Ясно и безоблачно+24°C57 %737 мм3.1 м/с5 %
  • 19июля
    Пятница
    +16°
    +31°
    Ясно и безоблачно
    ВремяПогодаТемператураВлажностьДавлениеВетер, м/сВероятность осадков
    00:00Ясно и безоблачно+21°C61 %738 мм3.2 м/с5 %
    03:00Ясно и безоблачно+20°C64 %737 мм3.2 м/с5 %
    06:00Ясно и безоблачно+18°C71 %738 мм2.6 м/с5 %
    09:00Ясно и безоблачно+20°C57 %740 мм3.3 м/с5 %
    12:00Ясно и безоблачно+27°C40 %740 мм2.3 м/с5 %
    15:00Ясно и безоблачно+31°C30 %738 мм1.3 м/с5 %
    18:00Ясно и безоблачно+29°C36 %738 мм2.0 м/с5 %
    21:00Ясно и безоблачно+24°C52 %739 мм2.9 м/с5 %
  • 20июля
    Суббота
    +18°
    +31°
    Ясно и безоблачно
    ВремяПогодаТемператураВлажностьДавлениеВетер, м/сВероятность осадков
    00:00Ясно и безоблачно+21°C63 %739 мм2.5 м/с5 %
    03:00Ясно и безоблачно+19°C71 %738 мм2.7 м/с5 %
    06:00Ясно и безоблачно+17°C83 %738 мм2.7 м/с5 %
    09:00Ясно и безоблачно+19°C70 %740 мм2.4 м/с5 %
    12:00Ясно и безоблачно+27°C45 %739 мм1.6 м/с5 %
    15:00Ясно и безоблачно+30°C32 %737 мм1.0 м/с5 %
    18:00Ясно и безоблачно+29°C37 %737 мм0.6 м/с5 %
    21:00Ясно и безоблачно+24°C56 %737 мм2.5 м/с5 %
  • 21июля
    Воскресенье
    +18°
    +31°
    Ясно и безоблачно
    ВремяПогодаТемператураВлажностьДавлениеВетер, м/сВероятность осадков
    00:00Ясно и безоблачно+21°C66 %737 мм2.7 м/с5 %
    03:00Ясно и безоблачно+20°C69 %736 мм3.0 м/с5 %
    06:00Ясно и безоблачно+18°C75 %737 мм2.5 м/с5 %
    09:00Ясно и безоблачно+20°C60 %738 мм2.4 м/с5 %
    12:00Ясно и безоблачно+27°C41 %738 мм2.2 м/с5 %
    15:00Ясно и безоблачно+30°C34 %736 мм1.4 м/с5 %
    18:00Ясно и безоблачно+28°C42 %736 мм2.6 м/с5 %
    21:00Ясно и безоблачно+25°C55 %737 мм2.6 м/с5 %
Мы используем cookies
Соглашаюсь